Time;durP1;ratioP1;P1;durP2;ratioP2;P2;SDS_P1;SDS_P2;PMS_P1;PMS_P2;Temp;Humidity;BMP_temperature;BMP_pressure;BME280_temperature;BME280_humidity;BME280_pressure;Samples;Min_cycle;Max_cycle;Signal;HPM_P1;HPM_P2
2021/11/02 00:01:04;;;;;;;5.07;3.33;;;8.00;99.90;;;;;;5032074;28;21598;-64
2021/11/02 00:03:31;;;;;;;6.70;3.70;;;8.10;99.90;;;;;;5032182;28;20453;-64
2021/11/02 00:05:58;;;;;;;4.90;3.93;;;8.10;99.90;;;;;;5043815;28;20862;-64
2021/11/02 00:08:25;;;;;;;5.60;3.93;;;8.10;99.90;;;;;;5047787;28;20480;-64
2021/11/02 00:10:52;;;;;;;6.60;3.53;;;8.10;99.90;;;;;;5051163;28;20454;-65
2021/11/02 00:13:25;;;;;;;6.70;4.00;;;8.20;99.90;;;;;;5050742;28;20962;-62
2021/11/02 00:15:58;;;;;;;6.03;3.60;;;8.20;99.90;;;;;;5050900;28;20553;-64
2021/11/02 00:18:26;;;;;;;5.27;4.23;;;8.20;99.90;;;;;;5050211;28;20817;-64
2021/11/02 00:20:58;;;;;;;7.70;3.97;;;8.20;99.90;;;;;;5051339;28;20479;-66
2021/11/02 00:23:25;;;;;;;5.00;3.63;;;8.20;99.90;;;;;;5050554;28;20812;-64
2021/11/02 00:25:52;;;;;;;5.67;4.10;;;8.30;99.90;;;;;;5051191;28;20475;-65
2021/11/02 00:28:20;;;;;;;6.73;4.17;;;8.30;99.90;;;;;;5049789;28;20495;-59
2021/11/02 00:30:47;;;;;;;7.80;4.47;;;8.30;99.90;;;;;;5050890;28;20444;-64
2021/11/02 00:33:14;;;;;;;5.40;4.07;;;8.30;99.90;;;;;;5050837;28;20454;-64
2021/11/02 00:35:41;;;;;;;7.43;3.97;;;8.40;99.90;;;;;;5043586;28;20854;-65
2021/11/02 00:38:08;;;;;;;4.43;3.57;;;8.40;99.90;;;;;;5032589;28;20449;-64
2021/11/02 00:40:36;;;;;;;7.30;3.60;;;8.40;99.90;;;;;;5040219;28;20455;-65
2021/11/02 00:43:04;;;;;;;6.10;3.67;;;8.40;99.90;;;;;;5052268;28;20530;-64
2021/11/02 00:45:34;;;;;;;8.40;4.00;;;8.40;99.90;;;;;;5052643;28;20522;-63
2021/11/02 00:48:03;;;;;;;7.30;3.47;;;8.40;99.90;;;;;;5051987;28;20476;-63
2021/11/02 00:50:33;;;;;;;4.70;3.20;;;8.50;99.90;;;;;;5052585;28;20448;-63
2021/11/02 00:53:00;;;;;;;5.83;3.90;;;8.50;99.90;;;;;;5052469;28;20898;-62
2021/11/02 00:55:27;;;;;;;5.57;2.80;;;8.50;99.90;;;;;;5052648;28;20490;-63
2021/11/02 00:57:54;;;;;;;4.50;3.97;;;8.60;99.90;;;;;;5051733;28;20937;-63
2021/11/02 01:00:23;;;;;;;6.83;3.47;;;8.60;99.90;;;;;;5052170;28;20444;-64
2021/11/02 01:02:51;;;;;;;3.77;3.43;;;8.70;99.90;;;;;;5051819;28;20501;-63
2021/11/02 01:05:18;;;;;;;5.73;3.70;;;8.60;99.90;;;;;;5052286;28;20464;-64
2021/11/02 01:07:45;;;;;;;4.23;2.73;;;8.60;99.90;;;;;;5051638;28;20472;-63
2021/11/02 01:10:16;;;;;;;4.00;3.40;;;8.60;99.90;;;;;;5052327;28;20448;-63
2021/11/02 01:12:43;;;;;;;6.83;3.17;;;8.70;99.90;;;;;;5051684;28;20483;-64
2021/11/02 01:15:11;;;;;;;5.40;3.30;;;8.70;99.90;;;;;;5052140;28;20448;-64
2021/11/02 01:17:38;;;;;;;5.87;3.70;;;8.70;99.90;;;;;;5051142;28;20435;-64
2021/11/02 01:20:08;;;;;;;5.00;3.27;;;8.70;99.90;;;;;;5052097;28;20454;-64
2021/11/02 01:22:35;;;;;;;6.30;3.47;;;8.70;99.90;;;;;;5051658;28;20467;-64
2021/11/02 01:25:02;;;;;;;6.30;3.70;;;8.80;99.90;;;;;;5052090;28;20454;-64
2021/11/02 01:27:29;;;;;;;5.60;3.20;;;8.70;99.90;;;;;;5051382;28;20448;-62
2021/11/02 01:29:56;;;;;;;3.80;3.10;;;8.80;99.90;;;;;;5051821;28;20452;-64
2021/11/02 01:32:23;;;;;;;3.50;2.70;;;8.90;99.90;;;;;;5051446;28;20480;-63
2021/11/02 01:34:50;;;;;;;4.70;2.93;;;8.90;99.90;;;;;;5051827;28;20435;-63
2021/11/02 01:37:18;;;;;;;5.87;3.20;;;8.90;99.90;;;;;;5050859;28;20472;-64
2021/11/02 01:39:45;;;;;;;6.50;3.70;;;8.90;99.90;;;;;;5050771;28;20478;-63
2021/11/02 01:42:12;;;;;;;10.10;4.07;;;8.90;99.90;;;;;;5051397;28;20472;-64
2021/11/02 01:44:39;;;;;;;3.77;3.33;;;9.00;99.90;;;;;;5051867;28;20456;-64
2021/11/02 01:47:06;;;;;;;4.90;3.50;;;9.00;99.90;;;;;;5050528;28;20464;-64
2021/11/02 01:49:34;;;;;;;5.53;3.20;;;9.00;99.90;;;;;;5051444;28;20502;-64
2021/11/02 01:52:02;;;;;;;9.93;4.90;;;9.00;99.90;;;;;;5051337;28;20502;-64
2021/11/02 01:54:30;;;;;;;4.97;3.13;;;9.00;99.90;;;;;;5051516;28;20458;-64
2021/11/02 01:56:59;;;;;;;5.03;3.90;;;9.00;99.90;;;;;;5048237;28;20992;-63
2021/11/02 01:59:29;;;;;;;6.00;4.03;;;9.00;99.90;;;;;;5051179;28;20440;-63
2021/11/02 02:02:02;;;;;;;4.50;3.57;;;9.00;99.90;;;;;;5050784;28;20502;-63
2021/11/02 02:04:45;;;;;;;5.97;3.33;;;9.00;99.90;;;;;;5051264;28;20448;-64
2021/11/02 02:07:18;;;;;;;6.00;4.13;;;9.00;99.90;;;;;;5030534;28;21165;-64
2021/11/02 02:09:53;;;;;;;6.53;4.37;;;8.90;99.90;;;;;;5031010;28;21013;-63
2021/11/02 02:12:30;;;;;;;4.80;3.87;;;8.80;99.90;;;;;;5030499;28;20455;-64
2021/11/02 02:15:08;;;;;;;4.30;3.40;;;8.80;99.90;;;;;;5014397;28;20519;-62
2021/11/02 02:17:40;;;;;;;7.07;4.20;;;8.90;99.90;;;;;;5030481;28;20447;-64
2021/11/02 02:20:09;;;;;;;6.83;4.50;;;8.80;99.90;;;;;;5031291;28;20460;-64
2021/11/02 02:23:07;;;;;;;7.60;4.37;;;8.80;99.90;;;;;;5030821;28;20452;-64
2021/11/02 02:25:50;;;;;;;5.67;4.03;;;8.80;99.90;;;;;;5031221;28;20469;-64
2021/11/02 02:28:21;;;;;;;5.90;3.60;;;8.80;99.90;;;;;;5030208;28;20483;-64
2021/11/02 02:30:53;;;;;;;6.87;3.53;;;8.90;99.90;;;;;;5031124;28;20441;-64
2021/11/02 02:33:23;;;;;;;10.13;4.37;;;8.90;99.90;;;;;;5030572;28;20463;-63
2021/11/02 02:35:51;;;;;;;9.60;3.63;;;8.90;99.90;;;;;;5031115;28;20457;-63
2021/11/02 02:38:21;;;;;;;7.50;3.90;;;8.90;99.90;;;;;;5029963;28;20441;-64
2021/11/02 02:40:50;;;;;;;4.63;3.73;;;8.90;99.90;;;;;;5030618;28;20456;-64
2021/11/02 02:43:18;;;;;;;3.73;2.93;;;8.90;99.90;;;;;;5030325;28;20449;-65
2021/11/02 02:45:48;;;;;;;9.43;5.60;;;8.90;99.90;;;;;;5030440;28;20469;-64
2021/11/02 02:48:18;;;;;;;6.27;4.03;;;8.90;99.90;;;;;;5029944;28;20895;-63
2021/11/02 02:50:47;;;;;;;5.00;3.63;;;8.90;99.90;;;;;;5030473;28;20993;-64
2021/11/02 02:53:14;;;;;;;4.80;3.10;;;8.90;99.90;;;;;;5030191;28;20510;-63
2021/11/02 02:55:43;;;;;;;5.03;3.80;;;8.90;99.90;;;;;;5030180;28;20469;-64
2021/11/02 02:58:10;;;;;;;5.90;4.30;;;8.90;99.90;;;;;;5029565;28;20441;-64
2021/11/02 03:00:38;;;;;;;7.77;5.30;;;8.90;99.90;;;;;;5030114;28;20460;-64
2021/11/02 03:03:06;;;;;;;5.97;4.60;;;8.90;99.90;;;;;;5029944;28;20840;-63
2021/11/02 03:05:33;;;;;;;6.17;4.33;;;8.90;99.90;;;;;;5029980;28;21304;-63
2021/11/02 03:08:00;;;;;;;8.70;5.00;;;8.80;99.90;;;;;;5029425;28;20453;-64
2021/11/02 03:10:28;;;;;;;6.17;4.53;;;8.70;99.90;;;;;;5029890;28;20813;-63
2021/11/02 03:12:58;;;;;;;6.90;3.70;;;8.70;99.90;;;;;;5029595;28;20445;-64
2021/11/02 03:18:28;;;;;;;7.50;3.40;;;8.50;99.90;;;;;;5012237;28;20429;-64
2021/11/02 03:49:08;;;;;;;3.77;2.40;;;8.60;99.90;;;;;;5029834;28;20483;-64
2021/11/02 03:51:59;;;;;;;8.53;2.60;;;8.60;99.90;;;;;;5029453;28;20484;-64
2021/11/02 03:54:36;;;;;;;3.47;1.87;;;8.60;99.90;;;;;;5029830;28;20449;-64
2021/11/02 03:57:12;;;;;;;3.17;2.03;;;8.50;99.90;;;;;;5028869;28;20465;-63
2021/11/02 04:28:13;;;;;;;4.67;2.03;;;8.00;99.90;;;;;;5106418;28;20442;-64
2021/11/02 05:06:45;;;;;;;5.90;2.83;;;7.20;99.90;;;;;;5106390;28;20439;-65
2021/11/02 05:13:15;;;;;;;5.13;2.30;;;7.00;99.90;;;;;;5063274;28;20473;-65
2021/11/02 05:54:47;;;;;;;4.67;2.17;;;6.80;99.90;;;;;;5085350;28;20434;-64
2021/11/02 05:57:20;;;;;;;6.93;2.70;;;6.80;99.90;;;;;;5091884;28;20469;-64
2021/11/02 05:59:51;;;;;;;4.37;2.30;;;6.70;99.90;;;;;;5092551;28;20446;-64
2021/11/02 06:08:26;;;;;;;4.37;2.83;;;6.50;99.90;;;;;;5080433;28;20442;-64
2021/11/02 06:11:08;;;;;;;5.80;2.33;;;6.40;99.90;;;;;;5091951;28;20438;-64
2021/11/02 06:27:47;;;;;;;6.67;2.40;;;6.30;99.90;;;;;;5091042;28;20936;-64
2021/11/02 06:30:17;;;;;;;4.17;2.33;;;6.30;99.90;;;;;;5091676;28;20442;-63
2021/11/02 06:32:49;;;;;;;4.90;2.70;;;6.30;99.90;;;;;;5091234;28;20453;-63
2021/11/02 06:35:22;;;;;;;3.40;2.53;;;6.30;99.90;;;;;;5091328;28;20444;-64
2021/11/02 06:38:03;;;;;;;7.10;4.20;;;6.30;99.90;;;;;;5090880;28;20446;-64
2021/11/02 06:43:43;;;;;;;6.80;3.60;;;6.30;99.90;;;;;;5090984;28;20927;-63
2021/11/02 06:49:11;;;;;;;3.83;2.77;;;6.40;99.90;;;;;;5090858;28;20513;-63
2021/11/02 06:52:10;;;;;;;3.93;2.53;;;6.40;99.90;;;;;;5090747;28;20441;-62
2021/11/02 06:54:59;;;;;;;5.03;3.10;;;6.40;99.90;;;;;;5091160;28;20480;-64
2021/11/02 06:58:02;;;;;;;6.30;4.00;;;6.30;99.90;;;;;;5090459;28;20499;-63
2021/11/02 07:17:21;;;;;;;11.73;4.50;;;6.50;99.90;;;;;;5089972;28;20433;-64
2021/11/02 07:19:58;;;;;;;4.87;3.90;;;6.60;99.90;;;;;;5090653;28;20445;-64
2021/11/02 07:25:14;;;;;;;5.57;3.70;;;6.70;99.90;;;;;;5090122;28;20482;-66
2021/11/02 07:28:04;;;;;;;6.30;3.60;;;6.90;99.90;;;;;;5089859;28;20529;-64
2021/11/02 08:46:08;;;;;;;5.67;1.90;;;11.20;99.90;;;;;;5084761;28;20512;-65
2021/11/02 08:48:35;;;;;;;5.57;2.70;;;11.30;99.90;;;;;;5086458;28;20997;-64
2021/11/02 08:51:04;;;;;;;4.30;2.57;;;11.30;99.90;;;;;;5089596;28;20458;-61
2021/11/02 08:53:31;;;;;;;4.37;2.00;;;11.40;99.90;;;;;;5089453;28;20457;-64
2021/11/02 08:55:57;;;;;;;5.60;2.43;;;11.30;99.90;;;;;;5086704;28;20480;-64
2021/11/02 08:58:26;;;;;;;3.60;2.00;;;11.30;99.90;;;;;;5085186;28;20450;-65
2021/11/02 09:00:54;;;;;;;3.50;2.10;;;11.30;99.90;;;;;;5086278;28;20439;-64
2021/11/02 09:03:23;;;;;;;5.50;2.90;;;11.30;99.90;;;;;;5089162;28;20521;-64
2021/11/02 09:05:54;;;;;;;3.40;1.83;;;11.30;99.90;;;;;;5089064;28;20454;-64
2021/11/02 09:08:24;;;;;;;4.17;1.87;;;11.20;99.90;;;;;;5088510;28;20528;-64
2021/11/02 09:10:51;;;;;;;6.83;2.77;;;11.10;99.90;;;;;;5085538;28;20822;-64
2021/11/02 09:13:22;;;;;;;4.20;2.47;;;11.00;99.90;;;;;;5090247;28;20438;-63
2021/11/02 09:15:54;;;;;;;4.40;2.60;;;11.00;99.90;;;;;;5092941;28;20458;-66
2021/11/02 09:18:22;;;;;;;3.60;2.47;;;11.00;99.90;;;;;;5079279;28;21163;-63
2021/11/02 09:20:48;;;;;;;4.60;2.60;;;10.90;99.90;;;;;;5091640;28;20442;-63
2021/11/02 09:23:15;;;;;;;4.53;2.37;;;10.80;99.90;;;;;;5091439;28;20446;-63
2021/11/02 09:25:43;;;;;;;4.40;2.63;;;10.70;99.90;;;;;;5091996;28;20564;-63
2021/11/02 09:28:10;;;;;;;5.53;2.93;;;10.50;99.90;;;;;;5088437;28;20446;-63
2021/11/02 09:30:37;;;;;;;5.20;3.20;;;10.40;99.90;;;;;;5090559;28;20454;-63
2021/11/02 09:33:04;;;;;;;6.40;3.60;;;10.20;99.90;;;;;;5091870;28;20545;-63
2021/11/02 09:35:33;;;;;;;4.47;2.73;;;10.10;99.90;;;;;;5081972;28;20493;-65
2021/11/02 09:38:17;;;;;;;6.27;3.37;;;10.00;99.90;;;;;;5089648;28;20450;-64
2021/11/02 09:41:26;;;;;;;5.60;2.40;;;9.90;99.90;;;;;;5089419;28;20477;-61
2021/11/02 09:44:47;;;;;;;7.03;2.90;;;9.80;99.90;;;;;;5091714;28;20470;-62
2021/11/02 09:47:38;;;;;;;6.77;3.30;;;9.70;99.90;;;;;;5008909;28;20921;-64
2021/11/02 09:50:34;;;;;;;4.30;2.67;;;9.70;99.90;;;;;;5090953;28;20575;-63
2021/11/02 09:53:37;;;;;;;5.33;3.50;;;9.70;99.90;;;;;;5091755;28;20442;-64
2021/11/02 09:56:13;;;;;;;4.47;2.73;;;9.70;99.90;;;;;;5092074;28;20994;-64
2021/11/02 09:59:12;;;;;;;4.17;3.00;;;9.70;99.90;;;;;;5091676;28;20433;-63
2021/11/02 10:01:48;;;;;;;4.27;1.73;;;9.70;99.90;;;;;;5088459;28;20439;-63
2021/11/02 10:04:55;;;;;;;3.80;2.17;;;9.60;99.90;;;;;;5085067;28;21006;-63
2021/11/02 10:08:04;;;;;;;5.00;2.00;;;9.60;99.90;;;;;;5089519;28;20465;-66
2021/11/02 10:10:46;;;;;;;4.57;2.33;;;9.60;99.90;;;;;;5186686;22;20892;-70
2021/11/02 10:13:32;;;;;;;4.60;1.87;;;9.60;99.90;;;;;;5054936;28;20522;-70
2021/11/02 10:16:13;;;;;;;3.00;1.80;;;9.60;99.90;;;;;;5054789;28;20551;-70
2021/11/02 10:18:54;;;;;;;3.70;1.70;;;9.50;99.90;;;;;;5070995;28;20481;-70
2021/11/02 10:22:00;;;;;;;4.30;2.10;;;9.50;99.90;;;;;;5064772;28;20530;-69
2021/11/02 10:24:52;;;;;;;5.10;1.93;;;9.50;99.90;;;;;;5072008;28;20514;-69
2021/11/02 10:27:38;;;;;;;3.40;1.90;;;9.50;99.90;;;;;;5071767;28;20482;-69
2021/11/02 10:30:32;;;;;;;4.87;1.93;;;9.60;99.90;;;;;;5071689;28;20562;-69
2021/11/02 10:33:10;;;;;;;4.57;2.30;;;9.80;99.90;;;;;;5071890;28;20451;-69
2021/11/02 10:35:51;;;;;;;4.20;2.20;;;9.80;99.90;;;;;;5071681;28;20528;-69
2021/11/02 10:38:26;;;;;;;4.00;2.40;;;9.80;99.90;;;;;;5063786;28;20518;-69
2021/11/02 10:40:59;;;;;;;5.27;4.77;;;9.90;99.90;;;;;;5071457;28;20454;-70
2021/11/02 10:43:52;;;;;;;4.60;2.70;;;9.90;99.90;;;;;;5071410;28;20446;-69
2021/11/02 10:46:25;;;;;;;4.73;2.73;;;9.90;99.90;;;;;;5071406;28;20866;-70
2021/11/02 10:49:00;;;;;;;10.80;2.97;;;9.80;99.90;;;;;;5071742;28;20478;-69
2021/11/02 10:51:39;;;;;;;4.00;2.80;;;9.80;99.90;;;;;;5071236;28;20453;-70
2021/11/02 10:54:46;;;;;;;5.00;2.33;;;9.70;99.90;;;;;;5071181;28;20493;-70
2021/11/02 10:57:38;;;;;;;2.80;2.30;;;9.80;99.90;;;;;;5071100;28;20470;-69
2021/11/02 11:00:07;;;;;;;3.27;2.17;;;9.70;99.90;;;;;;5068719;28;20475;-69
2021/11/02 11:02:34;;;;;;;5.80;2.10;;;9.60;99.90;;;;;;5071525;28;20450;-69
2021/11/02 11:05:05;;;;;;;6.03;3.20;;;9.60;99.90;;;;;;5071241;28;20855;-69
2021/11/02 11:07:37;;;;;;;6.67;3.63;;;9.70;99.90;;;;;;5071941;28;20876;-69
2021/11/02 11:10:07;;;;;;;7.23;2.40;;;9.70;99.90;;;;;;5071939;28;20532;-69
2021/11/02 11:12:39;;;;;;;5.00;2.33;;;9.80;99.90;;;;;;5073027;28;20555;-69
2021/11/02 11:15:07;;;;;;;2.90;2.20;;;9.90;99.90;;;;;;5073925;28;20442;-69
2021/11/02 11:17:36;;;;;;;4.10;2.27;;;10.00;99.90;;;;;;5073921;28;20502;-70
2021/11/02 11:20:13;;;;;;;6.50;2.50;;;9.90;99.90;;;;;;5074744;28;20471;-69
2021/11/02 11:22:41;;;;;;;6.10;2.00;;;9.90;99.90;;;;;;5072947;28;20538;-69
2021/11/02 11:25:12;;;;;;;4.73;2.07;;;10.00;99.90;;;;;;5072760;28;20562;-69
2021/11/02 11:27:46;;;;;;;5.23;2.23;;;9.90;99.90;;;;;;5072359;28;20478;-69
2021/11/02 11:30:13;;;;;;;3.63;2.40;;;9.90;99.90;;;;;;5071866;28;21066;-69
2021/11/02 11:32:42;;;;;;;3.90;2.20;;;10.00;99.90;;;;;;5070677;28;20535;-69
2021/11/02 11:35:11;;;;;;;3.83;1.87;;;10.00;99.90;;;;;;5071057;28;20526;-69
2021/11/02 11:37:41;;;;;;;5.33;2.30;;;10.00;99.90;;;;;;5070471;28;20478;-68
2021/11/02 11:40:09;;;;;;;6.90;2.10;;;10.10;99.90;;;;;;5070749;28;20907;-68
2021/11/02 11:42:37;;;;;;;3.87;2.07;;;10.20;99.90;;;;;;5070468;28;20471;-68
2021/11/02 11:45:08;;;;;;;4.23;2.10;;;10.40;99.90;;;;;;5070584;28;20561;-69
2021/11/02 11:47:35;;;;;;;7.50;2.70;;;10.40;99.90;;;;;;5070145;28;20920;-68
2021/11/02 11:50:20;;;;;;;5.37;2.80;;;10.60;99.90;;;;;;5069794;28;20495;-68
2021/11/02 11:52:50;;;;;;;4.97;2.80;;;10.90;99.90;;;;;;5070442;28;20974;-69
2021/11/02 11:55:24;;;;;;;5.57;2.67;;;11.00;99.90;;;;;;5062681;28;20533;-69
2021/11/02 11:58:06;;;;;;;5.23;2.10;;;11.30;99.90;;;;;;5070296;28;20883;-68
2021/11/02 12:00:34;;;;;;;5.73;2.40;;;11.60;99.90;;;;;;5070248;28;20467;-68
2021/11/02 12:03:04;;;;;;;3.10;2.20;;;11.80;99.90;;;;;;5069737;28;20530;-68
2021/11/02 12:05:41;;;;;;;4.93;2.40;;;12.00;99.90;;;;;;5070317;28;21050;-68
2021/11/02 12:08:17;;;;;;;2.73;1.70;;;12.00;99.90;;;;;;5070063;28;20545;-68
2021/11/02 12:10:45;;;;;;;3.20;2.20;;;12.00;99.90;;;;;;5069818;28;20502;-68
2021/11/02 12:13:13;;;;;;;3.80;1.90;;;12.10;99.90;;;;;;5070143;28;20443;-69
2021/11/02 12:15:49;;;;;;;4.47;1.90;;;12.20;99.90;;;;;;5070328;28;20521;-68
2021/11/02 12:18:18;;;;;;;2.80;1.90;;;12.30;99.90;;;;;;5065061;28;20811;-68
2021/11/02 12:20:47;;;;;;;3.40;2.23;;;12.30;99.90;;;;;;5070030;28;20558;-68
2021/11/02 12:23:23;;;;;;;2.83;1.90;;;12.40;99.90;;;;;;5069825;28;21015;-68
2021/11/02 12:25:53;;;;;;;3.83;1.80;;;12.50;99.90;;;;;;5069655;28;20623;-68
2021/11/02 12:28:30;;;;;;;6.43;2.23;;;12.50;99.90;;;;;;5069983;28;20954;-68
2021/11/02 12:31:00;;;;;;;5.47;1.73;;;12.40;99.90;;;;;;5070066;28;20463;-68
2021/11/02 12:33:28;;;;;;;2.60;1.00;;;12.30;99.90;;;;;;5070140;28;20549;-68
2021/11/02 12:35:58;;;;;;;3.40;1.00;;;11.80;99.90;;;;;;5069906;28;20514;-68
2021/11/02 12:38:40;;;;;;;2.80;1.00;;;11.40;99.90;;;;;;5069921;28;20457;-68
2021/11/02 12:41:19;;;;;;;1.77;0.70;;;10.90;99.90;;;;;;5070088;28;20902;-68
2021/11/02 12:43:46;;;;;;;1.80;0.80;;;10.60;99.90;;;;;;5070054;28;20467;-69
2021/11/02 12:46:14;;;;;;;3.27;0.77;;;10.50;99.90;;;;;;5072370;28;20519;-69
2021/11/02 12:48:44;;;;;;;2.53;0.80;;;10.50;99.90;;;;;;5073853;28;20443;-68
2021/11/02 12:51:22;;;;;;;2.87;1.13;;;10.50;99.90;;;;;;5073941;28;20526;-69
2021/11/02 12:53:56;;;;;;;2.73;1.10;;;10.60;99.90;;;;;;5073931;28;21076;-69
2021/11/02 12:56:24;;;;;;;2.07;1.00;;;10.60;99.90;;;;;;5073684;28;20434;-69
2021/11/02 12:59:00;;;;;;;1.90;0.90;;;10.70;99.90;;;;;;5074372;28;20446;-68
2021/11/02 13:01:33;;;;;;;2.07;0.70;;;10.80;99.90;;;;;;5073907;28;20478;-68
2021/11/02 13:04:04;;;;;;;2.03;0.93;;;11.00;99.90;;;;;;5073927;28;20538;-69
2021/11/02 13:06:43;;;;;;;2.27;0.90;;;11.10;99.90;;;;;;5073494;28;20475;-70
2021/11/02 13:09:14;;;;;;;2.70;0.90;;;11.20;99.90;;;;;;5074167;28;20502;-70
2021/11/02 13:11:43;;;;;;;2.37;1.00;;;11.30;99.90;;;;;;5074264;28;21205;-69
2021/11/02 13:14:14;;;;;;;2.53;0.80;;;11.40;99.90;;;;;;5073737;28;20478;-69
2021/11/02 13:16:58;;;;;;;1.90;0.73;;;11.60;99.90;;;;;;5073105;28;20463;-69
2021/11/02 13:19:32;;;;;;;2.60;1.13;;;11.90;99.90;;;;;;5073044;28;20491;-69
2021/11/02 13:22:09;;;;;;;2.07;0.90;;;12.10;99.90;;;;;;5073870;28;20539;-68
2021/11/02 13:24:35;;;;;;;1.77;0.70;;;12.30;99.90;;;;;;5073445;28;20449;-68
2021/11/02 13:27:08;;;;;;;1.90;0.90;;;12.30;99.90;;;;;;5072883;28;20562;-68
2021/11/02 13:29:35;;;;;;;2.20;0.70;;;12.10;99.90;;;;;;5073091;28;20486;-68
2021/11/02 13:32:03;;;;;;;2.53;0.67;;;12.00;99.90;;;;;;5072842;28;20534;-70
2021/11/02 13:34:37;;;;;;;1.50;0.60;;;11.80;99.90;;;;;;5073226;28;20453;-69
2021/11/02 13:37:07;;;;;;;2.00;0.70;;;11.70;99.90;;;;;;5073163;28;20435;-68
2021/11/02 13:39:57;;;;;;;2.17;0.90;;;11.50;99.90;;;;;;5072818;28;20905;-68
2021/11/02 13:42:46;;;;;;;1.60;0.60;;;11.40;99.90;;;;;;5072813;28;21055;-69
2021/11/02 13:45:18;;;;;;;1.50;0.50;;;11.20;99.90;;;;;;5071571;28;20479;-69
2021/11/02 13:47:45;;;;;;;1.40;0.40;;;11.10;99.90;;;;;;5072456;28;20525;-68
2021/11/02 13:50:12;;;;;;;1.70;0.60;;;11.00;99.90;;;;;;5072878;28;20550;-68
2021/11/02 13:52:42;;;;;;;2.10;0.60;;;11.00;99.90;;;;;;5073721;28;20530;-69
2021/11/02 13:55:10;;;;;;;1.90;0.63;;;11.10;99.90;;;;;;5072915;28;21002;-69
2021/11/02 13:57:37;;;;;;;1.50;0.50;;;11.20;99.90;;;;;;5072255;28;20431;-69
2021/11/02 14:00:06;;;;;;;1.80;0.70;;;11.20;99.90;;;;;;5072864;28;20502;-69
2021/11/02 14:02:34;;;;;;;1.70;0.50;;;11.20;99.90;;;;;;5072971;28;20522;-69
2021/11/02 14:05:01;;;;;;;2.53;0.80;;;11.20;99.90;;;;;;5072359;28;20475;-69
2021/11/02 14:07:31;;;;;;;2.03;0.60;;;11.20;99.90;;;;;;5072388;28;20529;-69
2021/11/02 14:10:04;;;;;;;2.60;0.70;;;11.20;99.90;;;;;;5072333;28;20494;-69
2021/11/02 14:12:34;;;;;;;1.70;0.63;;;11.10;99.90;;;;;;5072657;28;20443;-69
2021/11/02 14:15:16;;;;;;;2.00;0.77;;;11.20;99.90;;;;;;5072236;28;20448;-69
2021/11/02 14:17:44;;;;;;;1.67;0.60;;;11.30;99.90;;;;;;5072095;28;20841;-69
2021/11/02 14:20:12;;;;;;;2.83;0.60;;;11.50;99.90;;;;;;5070734;28;20495;-68
2021/11/02 14:22:43;;;;;;;1.90;0.70;;;11.70;99.90;;;;;;5071260;28;20443;-68
2021/11/02 14:25:13;;;;;;;1.60;0.50;;;11.90;99.90;;;;;;5071390;28;20978;-68
2021/11/02 14:27:42;;;;;;;1.87;0.70;;;12.10;99.90;;;;;;5068511;28;20527;-68
2021/11/02 14:30:10;;;;;;;1.70;0.70;;;12.20;99.90;;;;;;5071240;28;20550;-67
2021/11/02 14:32:47;;;;;;;2.17;0.70;;;12.20;99.90;;;;;;5071332;28;20872;-68
2021/11/02 14:35:49;;;;;;;1.70;0.60;;;12.00;99.90;;;;;;5071247;28;20501;-68
2021/11/02 14:38:18;;;;;;;2.17;0.63;;;12.00;99.90;;;;;;5070500;28;20496;-67
2021/11/02 14:40:47;;;;;;;1.87;0.77;;;11.90;99.90;;;;;;5071503;28;20533;-67
2021/11/02 14:43:32;;;;;;;1.60;0.50;;;11.80;99.90;;;;;;5071466;28;20554;-67
2021/11/02 14:46:01;;;;;;;1.83;0.70;;;11.70;99.90;;;;;;5068174;28;20546;-68
2021/11/02 14:48:40;;;;;;;2.10;0.93;;;11.70;99.90;;;;;;5070708;28;20478;-68
2021/11/02 14:51:27;;;;;;;1.87;0.67;;;11.60;99.90;;;;;;5069341;28;20438;-68
2021/11/02 14:53:55;;;;;;;1.87;0.87;;;11.50;99.90;;;;;;5070136;28;20446;-68
2021/11/02 14:56:31;;;;;;;1.60;0.60;;;11.40;99.90;;;;;;5070658;28;20439;-68
2021/11/02 14:58:58;;;;;;;3.10;1.00;;;11.40;99.90;;;;;;5069987;28;20537;-67
2021/11/02 15:02:05;;;;;;;2.80;0.90;;;11.30;99.90;;;;;;5070879;28;20467;-68
2021/11/02 15:04:33;;;;;;;1.90;0.90;;;11.40;99.90;;;;;;5069946;28;20439;-68
2021/11/02 15:07:04;;;;;;;3.03;1.30;;;11.30;99.90;;;;;;5067833;28;20862;-68
2021/11/02 15:09:33;;;;;;;4.10;0.60;;;11.30;99.90;;;;;;5069186;28;20465;-68
2021/11/02 15:12:01;;;;;;;2.20;0.70;;;11.30;99.90;;;;;;5067906;28;20496;-68
2021/11/02 15:14:30;;;;;;;1.83;0.73;;;11.30;99.90;;;;;;5071128;28;20471;-69
2021/11/02 15:16:59;;;;;;;2.20;0.80;;;11.30;99.90;;;;;;5069985;28;20474;-68
2021/11/02 15:19:28;;;;;;;2.20;0.80;;;11.10;99.90;;;;;;5070285;28;20459;-68
2021/11/02 15:21:57;;;;;;;3.53;1.43;;;10.90;99.90;;;;;;5070185;28;20438;-69
2021/11/02 15:24:27;;;;;;;2.80;1.27;;;10.70;99.90;;;;;;5070603;28;20530;-69
2021/11/02 15:26:57;;;;;;;3.50;1.27;;;10.50;99.90;;;;;;5069987;28;20608;-69
2021/11/02 15:29:26;;;;;;;2.60;1.13;;;10.50;99.90;;;;;;5070383;28;20959;-69
2021/11/02 15:32:03;;;;;;;1.90;0.90;;;10.30;99.90;;;;;;5070448;28;20813;-68
2021/11/02 15:34:51;;;;;;;2.17;0.83;;;10.20;99.90;;;;;;5070391;28;20534;-69
2021/11/02 15:37:20;;;;;;;2.30;1.10;;;10.00;99.90;;;;;;5070239;28;20439;-69
2021/11/02 15:39:52;;;;;;;1.93;0.80;;;9.90;99.90;;;;;;5070517;28;20498;-68
2021/11/02 15:42:28;;;;;;;1.70;0.80;;;9.80;99.90;;;;;;5070521;28;20450;-69
2021/11/02 15:44:57;;;;;;;2.10;1.10;;;9.70;99.90;;;;;;5070330;28;20932;-68
2021/11/02 15:47:26;;;;;;;3.63;0.90;;;9.60;99.90;;;;;;5070140;28;20593;-68
2021/11/02 15:49:59;;;;;;;2.17;0.83;;;9.60;99.90;;;;;;5070384;28;20459;-69
2021/11/02 15:52:28;;;;;;;1.80;1.00;;;9.50;99.90;;;;;;5070394;28;20796;-69
2021/11/02 15:55:02;;;;;;;1.50;0.60;;;9.40;99.90;;;;;;5070323;28;20534;-68
2021/11/02 15:57:29;;;;;;;1.97;0.90;;;9.30;99.90;;;;;;5069989;28;20955;-68
2021/11/02 16:00:03;;;;;;;3.00;0.90;;;9.30;99.90;;;;;;5070152;28;20553;-69
2021/11/02 16:02:37;;;;;;;2.00;0.90;;;9.30;99.90;;;;;;5070284;28;20449;-68
2021/11/02 16:05:07;;;;;;;2.27;0.70;;;9.20;99.90;;;;;;5070073;28;20534;-68
2021/11/02 16:07:34;;;;;;;1.80;0.67;;;9.20;99.90;;;;;;5069757;28;20908;-68
2021/11/02 16:10:05;;;;;;;2.80;0.63;;;9.20;99.90;;;;;;5063219;28;21553;-68
2021/11/02 16:12:35;;;;;;;2.20;0.90;;;9.10;99.90;;;;;;5069827;28;21194;-68
2021/11/02 16:15:10;;;;;;;2.40;0.70;;;9.20;99.90;;;;;;5069733;28;20880;-68
2021/11/02 16:17:42;;;;;;;2.40;0.70;;;9.20;99.90;;;;;;5069860;28;20541;-68
2021/11/02 16:20:21;;;;;;;2.50;1.10;;;9.30;99.90;;;;;;5069781;28;20565;-69
2021/11/02 16:22:51;;;;;;;1.73;0.60;;;9.30;99.90;;;;;;5070075;28;20482;-69
2021/11/02 16:25:20;;;;;;;2.83;1.20;;;9.30;99.90;;;;;;5070298;28;20516;-68
2021/11/02 16:27:55;;;;;;;2.13;0.93;;;9.30;99.90;;;;;;5069334;28;20562;-68
2021/11/02 16:30:24;;;;;;;1.83;0.87;;;9.20;99.90;;;;;;5069644;28;21038;-68
2021/11/02 16:32:55;;;;;;;4.37;1.03;;;9.10;99.90;;;;;;5070488;28;20518;-68
2021/11/02 16:35:39;;;;;;;2.43;1.00;;;9.00;99.90;;;;;;5070243;28;20539;-69
2021/11/02 16:38:28;;;;;;;2.00;1.10;;;8.80;99.90;;;;;;5069893;28;20438;-68
2021/11/02 16:40:59;;;;;;;1.90;0.90;;;8.80;99.90;;;;;;5069945;28;20906;-69
2021/11/02 16:43:31;;;;;;;2.53;0.87;;;8.80;99.90;;;;;;5069862;28;20526;-69
2021/11/02 16:45:59;;;;;;;2.73;1.03;;;8.80;99.90;;;;;;5069424;28;20530;-69
2021/11/02 16:48:41;;;;;;;4.60;1.80;;;8.80;99.90;;;;;;5069659;28;20443;-69
2021/11/02 16:51:08;;;;;;;2.67;1.17;;;8.80;99.90;;;;;;5069549;28;20539;-68
2021/11/02 16:53:35;;;;;;;3.80;1.47;;;8.90;99.90;;;;;;5068703;28;20466;-68
2021/11/02 16:56:10;;;;;;;3.90;1.87;;;8.90;99.90;;;;;;5069040;28;20887;-69
2021/11/02 16:58:45;;;;;;;3.97;1.30;;;8.90;99.90;;;;;;5065482;28;20450;-69
2021/11/02 17:01:34;;;;;;;3.27;1.40;;;8.90;99.90;;;;;;5059870;28;20882;-69
2021/11/02 17:04:13;;;;;;;3.20;1.23;;;8.80;99.90;;;;;;5059340;28;20448;-68
2021/11/02 17:06:40;;;;;;;2.60;1.20;;;8.80;99.90;;;;;;5061633;28;20973;-68
2021/11/02 17:09:16;;;;;;;2.10;1.00;;;8.70;99.90;;;;;;5057233;28;20482;-67
2021/11/02 17:11:58;;;;;;;2.80;0.90;;;8.60;99.90;;;;;;5058316;28;20458;-68
2021/11/02 17:14:26;;;;;;;2.30;0.80;;;8.50;99.90;;;;;;5062328;28;20455;-68
2021/11/02 17:16:58;;;;;;;1.90;0.90;;;8.40;99.90;;;;;;5061287;28;20460;-68
2021/11/02 17:19:27;;;;;;;1.83;0.80;;;8.40;99.90;;;;;;5069046;28;20541;-68
2021/11/02 17:21:57;;;;;;;3.00;1.10;;;8.40;99.90;;;;;;5065831;28;20526;-67
2021/11/02 17:24:24;;;;;;;2.33;1.10;;;8.40;99.90;;;;;;5059924;28;20469;-67
2021/11/02 17:26:53;;;;;;;2.47;1.20;;;8.30;99.90;;;;;;5060220;28;21024;-67
2021/11/02 17:29:20;;;;;;;3.03;1.27;;;8.30;99.90;;;;;;5060026;28;20467;-68
2021/11/02 17:31:47;;;;;;;3.20;1.23;;;8.30;99.90;;;;;;5071009;28;20880;-68
2021/11/02 17:34:23;;;;;;;2.10;1.30;;;8.20;99.90;;;;;;5070557;28;20538;-68
2021/11/02 17:36:58;;;;;;;2.73;1.47;;;8.10;99.90;;;;;;5072396;28;20470;-68
2021/11/02 17:39:28;;;;;;;3.53;1.73;;;7.90;99.90;;;;;;5069985;28;20574;-68
2021/11/02 17:41:58;;;;;;;3.20;2.20;;;7.90;99.90;;;;;;5073856;28;20510;-68
2021/11/02 17:44:25;;;;;;;3.10;1.90;;;7.80;99.90;;;;;;5071052;28;20483;-68